sensor_id;sensor_type;location;lat;lon;timestamp;P1;durP1;ratioP1;P2;durP2;ratioP2
17890;SDS011;9071;48.220;14.480;2023-07-02T00:04:49;7.30;;;5.88;;
17890;SDS011;9071;48.220;14.480;2023-07-02T00:09:51;7.00;;;5.78;;
17890;SDS011;9071;48.220;14.480;2023-07-02T00:14:56;6.88;;;5.57;;
17890;SDS011;9071;48.220;14.480;2023-07-02T00:19:59;8.43;;;4.95;;
17890;SDS011;9071;48.220;14.480;2023-07-02T00:25:07;8.23;;;5.47;;
17890;SDS011;9071;48.220;14.480;2023-07-02T00:30:09;9.38;;;5.75;;
17890;SDS011;9071;48.220;14.480;2023-07-02T00:35:13;7.55;;;4.85;;
17890;SDS011;9071;48.220;14.480;2023-07-02T00:40:16;6.70;;;5.05;;
17890;SDS011;9071;48.220;14.480;2023-07-02T00:45:20;8.05;;;5.13;;
17890;SDS011;9071;48.220;14.480;2023-07-02T00:50:28;6.35;;;5.03;;
17890;SDS011;9071;48.220;14.480;2023-07-02T00:55:30;6.05;;;4.88;;
17890;SDS011;9071;48.220;14.480;2023-07-02T01:00:32;7.45;;;5.60;;
17890;SDS011;9071;48.220;14.480;2023-07-02T01:05:36;6.65;;;5.30;;
17890;SDS011;9071;48.220;14.480;2023-07-02T01:10:38;7.95;;;5.65;;
17890;SDS011;9071;48.220;14.480;2023-07-02T01:15:40;7.32;;;5.55;;
17890;SDS011;9071;48.220;14.480;2023-07-02T01:20:45;10.00;;;5.78;;
17890;SDS011;9071;48.220;14.480;2023-07-02T01:25:48;9.35;;;5.90;;
17890;SDS011;9071;48.220;14.480;2023-07-02T01:30:53;9.10;;;6.15;;
17890;SDS011;9071;48.220;14.480;2023-07-02T01:35:56;10.45;;;5.65;;
17890;SDS011;9071;48.220;14.480;2023-07-02T01:40:58;7.93;;;5.93;;
17890;SDS011;9071;48.220;14.480;2023-07-02T01:46:00;9.25;;;6.28;;
17890;SDS011;9071;48.220;14.480;2023-07-02T01:51:04;7.85;;;5.80;;
17890;SDS011;9071;48.220;14.480;2023-07-02T01:56:06;9.23;;;6.10;;
17890;SDS011;9071;48.220;14.480;2023-07-02T02:01:08;9.63;;;6.72;;
17890;SDS011;9071;48.220;14.480;2023-07-02T02:06:11;8.70;;;6.80;;
17890;SDS011;9071;48.220;14.480;2023-07-02T02:11:13;7.70;;;6.30;;
17890;SDS011;9071;48.220;14.480;2023-07-02T02:16:15;6.28;;;5.40;;
17890;SDS011;9071;48.220;14.480;2023-07-02T02:21:19;5.78;;;4.40;;
17890;SDS011;9071;48.220;14.480;2023-07-02T02:26:22;5.13;;;3.83;;
17890;SDS011;9071;48.220;14.480;2023-07-02T02:31:25;6.45;;;3.40;;
17890;SDS011;9071;48.220;14.480;2023-07-02T02:36:29;3.53;;;3.20;;
17890;SDS011;9071;48.220;14.480;2023-07-02T02:41:31;4.75;;;3.47;;
17890;SDS011;9071;48.220;14.480;2023-07-02T02:46:33;4.03;;;3.22;;
17890;SDS011;9071;48.220;14.480;2023-07-02T02:51:36;5.45;;;3.63;;
17890;SDS011;9071;48.220;14.480;2023-07-02T02:56:40;4.38;;;3.15;;
17890;SDS011;9071;48.220;14.480;2023-07-02T03:01:43;5.45;;;2.95;;
17890;SDS011;9071;48.220;14.480;2023-07-02T03:06:47;4.60;;;3.42;;
17890;SDS011;9071;48.220;14.480;2023-07-02T03:11:49;4.75;;;3.50;;
17890;SDS011;9071;48.220;14.480;2023-07-02T03:16:51;5.50;;;3.60;;
17890;SDS011;9071;48.220;14.480;2023-07-02T03:21:56;7.97;;;4.47;;
17890;SDS011;9071;48.220;14.480;2023-07-02T03:26:58;5.80;;;3.97;;
17890;SDS011;9071;48.220;14.480;2023-07-02T03:32:00;6.30;;;4.25;;
17890;SDS011;9071;48.220;14.480;2023-07-02T03:37:04;5.80;;;3.45;;
17890;SDS011;9071;48.220;14.480;2023-07-02T03:42:07;3.90;;;3.35;;
17890;SDS011;9071;48.220;14.480;2023-07-02T03:47:09;6.03;;;3.70;;
17890;SDS011;9071;48.220;14.480;2023-07-02T03:52:14;4.13;;;3.58;;
17890;SDS011;9071;48.220;14.480;2023-07-02T03:57:16;5.75;;;3.90;;
17890;SDS011;9071;48.220;14.480;2023-07-02T04:02:18;4.03;;;3.63;;
17890;SDS011;9071;48.220;14.480;2023-07-02T04:07:22;4.97;;;3.88;;
17890;SDS011;9071;48.220;14.480;2023-07-02T04:12:24;6.28;;;3.92;;
17890;SDS011;9071;48.220;14.480;2023-07-02T04:17:26;5.20;;;3.88;;
17890;SDS011;9071;48.220;14.480;2023-07-02T04:22:29;5.63;;;3.60;;
17890;SDS011;9071;48.220;14.480;2023-07-02T04:27:31;5.18;;;3.80;;
17890;SDS011;9071;48.220;14.480;2023-07-02T04:32:33;5.57;;;4.00;;
17890;SDS011;9071;48.220;14.480;2023-07-02T04:37:37;4.32;;;3.90;;
17890;SDS011;9071;48.220;14.480;2023-07-02T04:42:39;5.30;;;3.80;;
17890;SDS011;9071;48.220;14.480;2023-07-02T04:47:47;8.05;;;3.60;;
17890;SDS011;9071;48.220;14.480;2023-07-02T04:52:50;6.78;;;3.45;;
17890;SDS011;9071;48.220;14.480;2023-07-02T04:57:52;4.20;;;3.00;;
17890;SDS011;9071;48.220;14.480;2023-07-02T05:02:54;3.42;;;2.70;;
17890;SDS011;9071;48.220;14.480;2023-07-02T05:07:57;3.50;;;2.60;;
17890;SDS011;9071;48.220;14.480;2023-07-02T05:13:00;3.60;;;2.70;;
17890;SDS011;9071;48.220;14.480;2023-07-02T05:18:02;3.78;;;2.88;;
17890;SDS011;9071;48.220;14.480;2023-07-02T05:23:05;5.60;;;2.80;;
17890;SDS011;9071;48.220;14.480;2023-07-02T05:28:07;5.43;;;2.95;;
17890;SDS011;9071;48.220;14.480;2023-07-02T05:33:09;2.95;;;2.30;;
17890;SDS011;9071;48.220;14.480;2023-07-02T05:38:14;3.20;;;2.30;;
17890;SDS011;9071;48.220;14.480;2023-07-02T05:43:17;3.78;;;2.58;;
17890;SDS011;9071;48.220;14.480;2023-07-02T05:48:19;4.13;;;2.40;;
17890;SDS011;9071;48.220;14.480;2023-07-02T05:53:23;4.47;;;2.63;;
17890;SDS011;9071;48.220;14.480;2023-07-02T05:58:25;4.15;;;2.55;;
17890;SDS011;9071;48.220;14.480;2023-07-02T06:03:27;3.00;;;2.70;;
17890;SDS011;9071;48.220;14.480;2023-07-02T06:08:30;5.40;;;2.83;;
17890;SDS011;9071;48.220;14.480;2023-07-02T06:13:32;4.00;;;2.40;;
17890;SDS011;9071;48.220;14.480;2023-07-02T06:18:34;3.00;;;2.40;;
17890;SDS011;9071;48.220;14.480;2023-07-02T06:23:41;6.03;;;2.47;;
17890;SDS011;9071;48.220;14.480;2023-07-02T06:28:44;3.47;;;2.70;;
17890;SDS011;9071;48.220;14.480;2023-07-02T06:33:46;5.13;;;2.95;;
17890;SDS011;9071;48.220;14.480;2023-07-02T06:38:49;4.65;;;2.70;;
17890;SDS011;9071;48.220;14.480;2023-07-02T06:43:51;4.05;;;3.35;;
17890;SDS011;9071;48.220;14.480;2023-07-02T06:48:54;3.58;;;3.00;;
17890;SDS011;9071;48.220;14.480;2023-07-02T06:53:58;4.30;;;3.33;;
17890;SDS011;9071;48.220;14.480;2023-07-02T06:59:00;3.40;;;3.10;;
17890;SDS011;9071;48.220;14.480;2023-07-02T07:04:02;2.83;;;2.58;;
17890;SDS011;9071;48.220;14.480;2023-07-02T07:09:06;3.33;;;2.97;;
17890;SDS011;9071;48.220;14.480;2023-07-02T07:14:08;4.00;;;3.10;;
17890;SDS011;9071;48.220;14.480;2023-07-02T07:19:10;3.15;;;2.80;;
17890;SDS011;9071;48.220;14.480;2023-07-02T07:24:13;4.60;;;2.90;;
17890;SDS011;9071;48.220;14.480;2023-07-02T07:29:15;3.28;;;2.40;;
17890;SDS011;9071;48.220;14.480;2023-07-02T07:34:17;2.92;;;2.60;;
17890;SDS011;9071;48.220;14.480;2023-07-02T07:39:21;2.95;;;2.60;;
17890;SDS011;9071;48.220;14.480;2023-07-02T07:44:24;6.13;;;2.33;;
17890;SDS011;9071;48.220;14.480;2023-07-02T07:49:29;2.42;;;2.22;;
17890;SDS011;9071;48.220;14.480;2023-07-02T07:54:32;4.28;;;2.28;;
17890;SDS011;9071;48.220;14.480;2023-07-02T07:59:35;4.35;;;2.33;;
17890;SDS011;9071;48.220;14.480;2023-07-02T08:04:37;3.55;;;2.70;;
17890;SDS011;9071;48.220;14.480;2023-07-02T08:09:40;2.38;;;2.08;;
17890;SDS011;9071;48.220;14.480;2023-07-02T08:14:42;2.28;;;2.08;;
17890;SDS011;9071;48.220;14.480;2023-07-02T08:19:44;3.00;;;2.40;;
17890;SDS011;9071;48.220;14.480;2023-07-02T08:24:48;3.00;;;2.10;;
17890;SDS011;9071;48.220;14.480;2023-07-02T08:29:50;5.43;;;2.33;;
17890;SDS011;9071;48.220;14.480;2023-07-02T08:34:52;6.05;;;2.35;;
17890;SDS011;9071;48.220;14.480;2023-07-02T08:39:55;2.92;;;2.10;;
17890;SDS011;9071;48.220;14.480;2023-07-02T08:44:57;4.57;;;2.40;;
17890;SDS011;9071;48.220;14.480;2023-07-02T08:50:01;2.50;;;2.15;;
17890;SDS011;9071;48.220;14.480;2023-07-02T08:55:07;2.55;;;2.13;;
17890;SDS011;9071;48.220;14.480;2023-07-02T09:00:09;2.65;;;2.30;;
17890;SDS011;9071;48.220;14.480;2023-07-02T09:05:12;3.15;;;2.03;;
17890;SDS011;9071;48.220;14.480;2023-07-02T09:10:26;3.35;;;1.92;;
17890;SDS011;9071;48.220;14.480;2023-07-02T09:15:34;2.30;;;2.10;;
17890;SDS011;9071;48.220;14.480;2023-07-02T09:20:37;2.80;;;2.08;;
17890;SDS011;9071;48.220;14.480;2023-07-02T09:25:41;3.28;;;2.13;;
17890;SDS011;9071;48.220;14.480;2023-07-02T09:30:50;2.67;;;1.90;;
17890;SDS011;9071;48.220;14.480;2023-07-02T09:35:52;5.50;;;2.25;;
17890;SDS011;9071;48.220;14.480;2023-07-02T09:40:56;4.53;;;2.30;;
17890;SDS011;9071;48.220;14.480;2023-07-02T09:45:59;2.90;;;2.10;;
17890;SDS011;9071;48.220;14.480;2023-07-02T09:51:01;2.67;;;2.13;;
17890;SDS011;9071;48.220;14.480;2023-07-02T09:56:06;4.38;;;1.77;;
17890;SDS011;9071;48.220;14.480;2023-07-02T10:01:09;4.70;;;2.20;;
17890;SDS011;9071;48.220;14.480;2023-07-02T10:06:11;2.80;;;1.95;;
17890;SDS011;9071;48.220;14.480;2023-07-02T10:11:14;4.43;;;2.20;;
17890;SDS011;9071;48.220;14.480;2023-07-02T10:16:16;3.00;;;2.22;;
17890;SDS011;9071;48.220;14.480;2023-07-02T10:21:20;2.50;;;2.03;;
17890;SDS011;9071;48.220;14.480;2023-07-02T10:26:24;2.70;;;2.03;;
17890;SDS011;9071;48.220;14.480;2023-07-02T10:31:27;3.30;;;2.10;;
17890;SDS011;9071;48.220;14.480;2023-07-02T10:36:29;4.88;;;2.10;;
17890;SDS011;9071;48.220;14.480;2023-07-02T10:41:33;2.45;;;2.15;;
17890;SDS011;9071;48.220;14.480;2023-07-02T10:46:42;3.72;;;2.47;;
17890;SDS011;9071;48.220;14.480;2023-07-02T10:51:45;3.45;;;2.30;;
17890;SDS011;9071;48.220;14.480;2023-07-02T10:56:59;5.38;;;2.53;;
17890;SDS011;9071;48.220;14.480;2023-07-02T11:02:01;5.53;;;2.58;;
17890;SDS011;9071;48.220;14.480;2023-07-02T11:07:04;4.95;;;2.53;;
17890;SDS011;9071;48.220;14.480;2023-07-02T11:12:08;4.25;;;2.53;;
17890;SDS011;9071;48.220;14.480;2023-07-02T11:17:10;6.78;;;4.28;;
17890;SDS011;9071;48.220;14.480;2023-07-02T11:22:12;31.67;;;17.42;;
17890;SDS011;9071;48.220;14.480;2023-07-02T11:27:21;5.05;;;3.15;;
17890;SDS011;9071;48.220;14.480;2023-07-02T11:32:23;8.48;;;3.35;;
17890;SDS011;9071;48.220;14.480;2023-07-02T11:37:25;4.88;;;2.55;;
17890;SDS011;9071;48.220;14.480;2023-07-02T11:42:30;4.65;;;3.13;;
17890;SDS011;9071;48.220;14.480;2023-07-02T11:47:32;4.35;;;2.25;;
17890;SDS011;9071;48.220;14.480;2023-07-02T11:52:35;5.72;;;2.75;;
17890;SDS011;9071;48.220;14.480;2023-07-02T11:57:38;4.15;;;2.42;;
17890;SDS011;9071;48.220;14.480;2023-07-02T12:02:40;4.25;;;2.40;;
17890;SDS011;9071;48.220;14.480;2023-07-02T12:07:42;2.85;;;2.15;;
17890;SDS011;9071;48.220;14.480;2023-07-02T12:12:46;3.65;;;2.38;;
17890;SDS011;9071;48.220;14.480;2023-07-02T12:17:48;5.60;;;3.17;;
17890;SDS011;9071;48.220;14.480;2023-07-02T12:22:50;3.35;;;2.00;;
17890;SDS011;9071;48.220;14.480;2023-07-02T12:27:53;3.90;;;2.08;;
17890;SDS011;9071;48.220;14.480;2023-07-02T12:32:55;3.25;;;1.85;;
17890;SDS011;9071;48.220;14.480;2023-07-02T12:37:57;2.50;;;1.85;;
17890;SDS011;9071;48.220;14.480;2023-07-02T12:43:01;3.35;;;1.60;;
17890;SDS011;9071;48.220;14.480;2023-07-02T12:48:04;2.53;;;1.65;;
17890;SDS011;9071;48.220;14.480;2023-07-02T12:53:06;2.95;;;1.90;;
17890;SDS011;9071;48.220;14.480;2023-07-02T12:58:10;4.75;;;1.95;;
17890;SDS011;9071;48.220;14.480;2023-07-02T13:03:13;1.50;;;1.40;;
17890;SDS011;9071;48.220;14.480;2023-07-02T13:08:16;2.90;;;1.67;;
17890;SDS011;9071;48.220;14.480;2023-07-02T13:13:19;1.90;;;1.70;;
17890;SDS011;9071;48.220;14.480;2023-07-02T13:18:21;1.85;;;1.60;;
17890;SDS011;9071;48.220;14.480;2023-07-02T13:23:23;1.90;;;1.73;;
17890;SDS011;9071;48.220;14.480;2023-07-02T13:28:27;2.65;;;1.95;;
17890;SDS011;9071;48.220;14.480;2023-07-02T13:33:29;2.53;;;1.77;;
17890;SDS011;9071;48.220;14.480;2023-07-02T13:38:31;2.72;;;2.10;;
17890;SDS011;9071;48.220;14.480;2023-07-02T13:43:35;3.47;;;2.13;;
17890;SDS011;9071;48.220;14.480;2023-07-02T13:48:37;2.88;;;1.95;;
17890;SDS011;9071;48.220;14.480;2023-07-02T13:53:39;3.17;;;2.03;;
17890;SDS011;9071;48.220;14.480;2023-07-02T13:58:59;3.38;;;2.30;;
17890;SDS011;9071;48.220;14.480;2023-07-02T14:04:02;5.40;;;3.13;;
17890;SDS011;9071;48.220;14.480;2023-07-02T14:09:05;3.97;;;2.80;;
17890;SDS011;9071;48.220;14.480;2023-07-02T14:14:08;4.95;;;3.42;;
17890;SDS011;9071;48.220;14.480;2023-07-02T14:19:11;4.32;;;3.53;;
17890;SDS011;9071;48.220;14.480;2023-07-02T14:24:13;5.55;;;3.83;;
17890;SDS011;9071;48.220;14.480;2023-07-02T14:29:17;5.38;;;3.55;;
17890;SDS011;9071;48.220;14.480;2023-07-02T14:34:19;6.03;;;4.22;;
17890;SDS011;9071;48.220;14.480;2023-07-02T14:39:21;6.15;;;4.22;;
17890;SDS011;9071;48.220;14.480;2023-07-02T14:44:25;4.90;;;4.20;;
17890;SDS011;9071;48.220;14.480;2023-07-02T14:49:27;5.90;;;4.35;;
17890;SDS011;9071;48.220;14.480;2023-07-02T14:54:29;6.78;;;4.93;;
17890;SDS011;9071;48.220;14.480;2023-07-02T14:59:33;5.88;;;4.72;;
17890;SDS011;9071;48.220;14.480;2023-07-02T15:04:35;6.45;;;5.03;;
17890;SDS011;9071;48.220;14.480;2023-07-02T15:09:37;7.57;;;4.80;;
17890;SDS011;9071;48.220;14.480;2023-07-02T15:14:40;13.88;;;5.15;;
17890;SDS011;9071;48.220;14.480;2023-07-02T15:19:43;6.78;;;5.07;;
17890;SDS011;9071;48.220;14.480;2023-07-02T15:24:45;9.02;;;5.00;;
17890;SDS011;9071;48.220;14.480;2023-07-02T15:29:49;11.40;;;4.60;;
17890;SDS011;9071;48.220;14.480;2023-07-02T15:34:51;14.32;;;4.88;;
17890;SDS011;9071;48.220;14.480;2023-07-02T15:39:53;7.35;;;5.13;;
17890;SDS011;9071;48.220;14.480;2023-07-02T15:44:56;7.90;;;5.07;;
17890;SDS011;9071;48.220;14.480;2023-07-02T15:49:58;7.60;;;5.00;;
17890;SDS011;9071;48.220;14.480;2023-07-02T15:55:00;8.13;;;5.60;;
17890;SDS011;9071;48.220;14.480;2023-07-02T16:00:04;7.28;;;5.15;;
17890;SDS011;9071;48.220;14.480;2023-07-02T16:05:08;6.80;;;4.82;;
17890;SDS011;9071;48.220;14.480;2023-07-02T16:10:12;7.57;;;5.90;;
17890;SDS011;9071;48.220;14.480;2023-07-02T16:15:15;7.85;;;5.45;;
17890;SDS011;9071;48.220;14.480;2023-07-02T16:20:17;8.02;;;5.47;;
17890;SDS011;9071;48.220;14.480;2023-07-02T16:25:20;10.75;;;6.10;;
17890;SDS011;9071;48.220;14.480;2023-07-02T16:30:23;8.10;;;5.30;;
17890;SDS011;9071;48.220;14.480;2023-07-02T16:35:27;8.68;;;5.95;;
17890;SDS011;9071;48.220;14.480;2023-07-02T16:40:29;8.43;;;5.65;;
17890;SDS011;9071;48.220;14.480;2023-07-02T16:45:32;8.55;;;6.13;;
17890;SDS011;9071;48.220;14.480;2023-07-02T16:50:35;10.63;;;5.70;;
17890;SDS011;9071;48.220;14.480;2023-07-02T16:55:37;8.65;;;5.65;;
17890;SDS011;9071;48.220;14.480;2023-07-02T17:00:42;8.85;;;5.85;;
17890;SDS011;9071;48.220;14.480;2023-07-02T17:05:45;8.45;;;5.90;;
17890;SDS011;9071;48.220;14.480;2023-07-02T17:10:47;9.95;;;6.55;;
17890;SDS011;9071;48.220;14.480;2023-07-02T17:15:50;9.63;;;6.55;;
17890;SDS011;9071;48.220;14.480;2023-07-02T17:20:52;9.10;;;6.47;;
17890;SDS011;9071;48.220;14.480;2023-07-02T17:25:59;13.30;;;7.72;;
17890;SDS011;9071;48.220;14.480;2023-07-02T17:31:03;12.18;;;6.93;;
17890;SDS011;9071;48.220;14.480;2023-07-02T17:36:05;11.73;;;7.40;;
17890;SDS011;9071;48.220;14.480;2023-07-02T17:41:07;11.95;;;7.93;;
17890;SDS011;9071;48.220;14.480;2023-07-02T17:46:13;10.38;;;7.43;;
17890;SDS011;9071;48.220;14.480;2023-07-02T17:51:15;12.57;;;7.78;;
17890;SDS011;9071;48.220;14.480;2023-07-02T17:56:17;13.70;;;7.80;;
17890;SDS011;9071;48.220;14.480;2023-07-02T18:01:21;12.27;;;7.72;;
17890;SDS011;9071;48.220;14.480;2023-07-02T18:06:24;11.75;;;7.57;;
17890;SDS011;9071;48.220;14.480;2023-07-02T18:11:26;12.07;;;7.70;;
17890;SDS011;9071;48.220;14.480;2023-07-02T18:16:29;13.80;;;7.95;;
17890;SDS011;9071;48.220;14.480;2023-07-02T18:21:32;14.32;;;8.38;;
17890;SDS011;9071;48.220;14.480;2023-07-02T18:26:34;11.88;;;7.00;;
17890;SDS011;9071;48.220;14.480;2023-07-02T18:31:37;13.38;;;7.38;;
17890;SDS011;9071;48.220;14.480;2023-07-02T18:36:39;11.85;;;7.55;;
17890;SDS011;9071;48.220;14.480;2023-07-02T18:41:47;13.82;;;7.97;;
17890;SDS011;9071;48.220;14.480;2023-07-02T18:46:50;11.10;;;7.38;;
17890;SDS011;9071;48.220;14.480;2023-07-02T18:51:53;10.65;;;7.32;;
17890;SDS011;9071;48.220;14.480;2023-07-02T18:56:56;10.63;;;8.02;;
17890;SDS011;9071;48.220;14.480;2023-07-02T19:01:59;12.88;;;7.50;;
17890;SDS011;9071;48.220;14.480;2023-07-02T19:07:03;10.75;;;7.72;;
17890;SDS011;9071;48.220;14.480;2023-07-02T19:12:06;11.15;;;7.80;;
17890;SDS011;9071;48.220;14.480;2023-07-02T19:17:11;11.70;;;7.95;;
17890;SDS011;9071;48.220;14.480;2023-07-02T19:22:15;11.68;;;7.50;;
17890;SDS011;9071;48.220;14.480;2023-07-02T19:27:19;12.02;;;7.78;;
17890;SDS011;9071;48.220;14.480;2023-07-02T19:32:23;11.48;;;7.88;;
17890;SDS011;9071;48.220;14.480;2023-07-02T19:37:25;16.98;;;10.95;;
17890;SDS011;9071;48.220;14.480;2023-07-02T19:42:27;57.65;;;39.70;;
17890;SDS011;9071;48.220;14.480;2023-07-02T19:47:32;19.80;;;13.60;;
17890;SDS011;9071;48.220;14.480;2023-07-02T19:52:34;22.58;;;17.55;;
17890;SDS011;9071;48.220;14.480;2023-07-02T19:57:36;12.88;;;8.52;;
17890;SDS011;9071;48.220;14.480;2023-07-02T20:02:40;10.93;;;7.90;;
17890;SDS011;9071;48.220;14.480;2023-07-02T20:07:44;17.00;;;12.38;;
17890;SDS011;9071;48.220;14.480;2023-07-02T20:12:46;12.10;;;8.55;;
17890;SDS011;9071;48.220;14.480;2023-07-02T20:17:49;38.33;;;25.60;;
17890;SDS011;9071;48.220;14.480;2023-07-02T20:22:51;60.90;;;44.40;;
17890;SDS011;9071;48.220;14.480;2023-07-02T20:27:54;34.03;;;22.48;;
17890;SDS011;9071;48.220;14.480;2023-07-02T20:32:57;69.45;;;47.72;;
17890;SDS011;9071;48.220;14.480;2023-07-02T20:37:59;94.65;;;74.15;;
17890;SDS011;9071;48.220;14.480;2023-07-02T20:43:01;54.47;;;47.92;;
17890;SDS011;9071;48.220;14.480;2023-07-02T20:48:05;18.10;;;14.63;;
17890;SDS011;9071;48.220;14.480;2023-07-02T20:53:09;12.95;;;8.45;;
17890;SDS011;9071;48.220;14.480;2023-07-02T20:58:12;14.00;;;9.30;;
17890;SDS011;9071;48.220;14.480;2023-07-02T21:03:15;15.68;;;8.85;;
17890;SDS011;9071;48.220;14.480;2023-07-02T21:08:17;12.30;;;8.55;;
17890;SDS011;9071;48.220;14.480;2023-07-02T21:13:19;11.98;;;8.40;;
17890;SDS011;9071;48.220;14.480;2023-07-02T21:18:23;15.27;;;8.85;;
17890;SDS011;9071;48.220;14.480;2023-07-02T21:23:25;16.65;;;9.63;;
17890;SDS011;9071;48.220;14.480;2023-07-02T21:28:27;18.92;;;9.50;;
17890;SDS011;9071;48.220;14.480;2023-07-02T21:33:31;20.85;;;10.05;;
17890;SDS011;9071;48.220;14.480;2023-07-02T21:38:33;23.73;;;9.88;;
17890;SDS011;9071;48.220;14.480;2023-07-02T21:43:35;21.00;;;10.02;;
17890;SDS011;9071;48.220;14.480;2023-07-02T21:48:39;24.25;;;9.35;;
17890;SDS011;9071;48.220;14.480;2023-07-02T21:53:41;24.98;;;9.85;;
17890;SDS011;9071;48.220;14.480;2023-07-02T21:58:43;15.32;;;9.00;;
17890;SDS011;9071;48.220;14.480;2023-07-02T22:03:49;19.73;;;9.43;;
17890;SDS011;9071;48.220;14.480;2023-07-02T22:08:51;22.23;;;9.77;;
17890;SDS011;9071;48.220;14.480;2023-07-02T22:13:53;22.23;;;10.13;;
17890;SDS011;9071;48.220;14.480;2023-07-02T22:18:57;23.90;;;10.88;;
17890;SDS011;9071;48.220;14.480;2023-07-02T22:23:59;15.73;;;9.68;;
17890;SDS011;9071;48.220;14.480;2023-07-02T22:29:01;17.42;;;9.68;;
17890;SDS011;9071;48.220;14.480;2023-07-02T22:34:05;17.42;;;9.50;;
17890;SDS011;9071;48.220;14.480;2023-07-02T22:39:07;15.52;;;9.70;;
17890;SDS011;9071;48.220;14.480;2023-07-02T22:44:09;21.80;;;9.88;;
17890;SDS011;9071;48.220;14.480;2023-07-02T22:49:13;15.40;;;9.05;;
17890;SDS011;9071;48.220;14.480;2023-07-02T22:54:15;13.93;;;9.15;;
17890;SDS011;9071;48.220;14.480;2023-07-02T22:59:17;20.23;;;10.00;;
17890;SDS011;9071;48.220;14.480;2023-07-02T23:04:20;16.73;;;10.07;;
17890;SDS011;9071;48.220;14.480;2023-07-02T23:09:23;19.15;;;10.18;;
17890;SDS011;9071;48.220;14.480;2023-07-02T23:14:26;18.98;;;11.30;;
17890;SDS011;9071;48.220;14.480;2023-07-02T23:19:29;15.52;;;10.88;;
17890;SDS011;9071;48.220;14.480;2023-07-02T23:24:33;19.55;;;10.38;;
17890;SDS011;9071;48.220;14.480;2023-07-02T23:29:35;18.77;;;11.40;;
17890;SDS011;9071;48.220;14.480;2023-07-02T23:34:38;15.52;;;10.32;;
17890;SDS011;9071;48.220;14.480;2023-07-02T23:39:40;18.92;;;11.00;;
17890;SDS011;9071;48.220;14.480;2023-07-02T23:44:43;16.33;;;11.27;;
17890;SDS011;9071;48.220;14.480;2023-07-02T23:49:47;16.17;;;11.20;;
17890;SDS011;9071;48.220;14.480;2023-07-02T23:54:49;19.77;;;11.95;;
17890;SDS011;9071;48.220;14.480;2023-07-02T23:59:51;18.52;;;11.20;;
